PWSweather.com
Personal Weather Stations
Station Observations
JOE4SPEED
Jupiter, Fl, Jupiter, FL 33458

Jupiter, FlJupiter, FL 33458

Lat: 26.9373, Lon: -80.1101

Elevation: 12

Station Type: Davis VP 2

http://www.joe4speed.com/wxindex.php

High Low Average
Temperature 0.0°F-17.8°F 0.0°F-17.8°F 0.0°F-17.8°F
Dew Point 0.0°F-17.8°F 0.0°F-17.8°F 0.0°F-17.8°F
Winds Calm Calm Calm Calm Calm Calm
Wind Gusts -- -- --
Humidity 0% 0% 0%
Pressure 0.00 in0.00 in 0.00 in0.00 in -
Precipitation 0.00 in0.0 mm - -
Hour Temp Dew Point Humidity Winds Wind Gusts Pressure Precip Precip Rate Daily Precip Total
12:00 AM 80.0°F26.7°C 74.8°F23.8°C 84% 2.3 mph SE3.7 kmh SE 3.5 mph5.6 kmh 29.92 in1013.2 mb - 0.00 in0.0 mm 0.00 in0.0 mm
12:10 AM 80.1°F26.7°C 74.8°F23.8°C 84% 1.2 mph SE1.9 kmh SE 3.5 mph5.6 kmh 29.92 in1013.2 mb - 0.00 in0.0 mm 0.00 in0.0 mm
12:20 AM 80.2°F26.8°C 75.3°F24.1°C 85% 3.5 mph SE5.6 kmh SE 4.6 mph7.4 kmh 29.92 in1013.2 mb - 0.00 in0.0 mm 0.00 in0.0 mm
12:30 AM 80.2°F26.8°C 75.3°F24.1°C 85% 3.5 mph SE5.6 kmh SE 5.8 mph9.3 kmh 29.92 in1013.2 mb - 0.00 in0.0 mm 0.00 in0.0 mm
12:40 AM 80.3°F26.8°C 75.4°F24.1°C 85% 4.6 mph SE7.4 kmh SE 6.9 mph11.1 kmh 29.92 in1013.2 mb - 0.00 in0.0 mm 0.00 in0.0 mm
12:50 AM 80.4°F26.9°C 75.1°F23.9°C 84% 3.5 mph SE5.6 kmh SE 3.5 mph5.6 kmh 29.92 in1013.2 mb - 0.00 in0.0 mm 0.00 in0.0 mm
01:00 AM 80.6°F27.0°C 75.3°F24.1°C 84% 3.5 mph ESE5.6 kmh ESE 4.6 mph7.4 kmh 29.92 in1013.2 mb - 0.00 in0.0 mm 0.00 in0.0 mm
01:10 AM 80.7°F27.1°C 75.1°F23.9°C 83% 3.5 mph SE5.6 kmh SE 4.6 mph7.4 kmh 29.92 in1013.2 mb - 0.00 in0.0 mm 0.00 in0.0 mm
01:20 AM 80.9°F27.2°C 74.9°F23.8°C 82% 4.6 mph SE7.4 kmh SE 6.9 mph11.1 kmh 29.91 in1012.9 mb - 0.00 in0.0 mm 0.00 in0.0 mm
01:30 AM 81.1°F27.3°C 74.7°F23.7°C 81% 3.5 mph SE5.6 kmh SE 6.9 mph11.1 kmh 29.91 in1012.9 mb - 0.00 in0.0 mm 0.00 in0.0 mm
01:40 AM 81.2°F27.3°C 74.8°F23.8°C 81% 4.6 mph SE7.4 kmh SE 6.9 mph11.1 kmh 29.92 in1013.2 mb - 0.00 in0.0 mm 0.00 in0.0 mm
01:50 AM 81.4°F27.4°C 75.0°F23.9°C 81% 3.5 mph SE5.6 kmh SE 4.6 mph7.4 kmh 29.91 in1012.9 mb - 0.00 in0.0 mm 0.00 in0.0 mm
02:00 AM 81.1°F27.3°C 75.1°F23.9°C 82% 6.9 mph SE11.1 kmh SE 11.5 mph18.5 kmh 29.91 in1012.9 mb - 0.02 in0.5 mm 0.02 in0.5 mm
02:10 AM 80.2°F26.8°C 75.2°F24.0°C 85% 2.3 mph SE3.7 kmh SE 3.5 mph5.6 kmh 29.90 in1012.5 mb - 0.01 in0.3 mm 0.02 in0.5 mm
02:20 AM 79.4°F26.3°C 74.9°F23.8°C 86% 6.9 mph ESE11.1 kmh ESE 9.2 mph14.8 kmh 29.90 in1012.5 mb - 0.00 in0.0 mm 0.02 in0.5 mm
02:30 AM 79.3°F26.3°C 75.1°F23.9°C 87% 5.8 mph ESE9.3 kmh ESE 8.1 mph13.0 kmh 29.89 in1012.2 mb - 0.00 in0.0 mm 0.02 in0.5 mm
02:40 AM 79.6°F26.4°C 75.4°F24.1°C 87% 4.6 mph ESE7.4 kmh ESE 10.4 mph16.7 kmh 29.89 in1012.2 mb - 0.03 in0.8 mm 0.05 in1.3 mm
02:50 AM 79.4°F26.3°C 75.5°F24.2°C 88% 3.5 mph SE5.6 kmh SE 6.9 mph11.1 kmh 29.89 in1012.2 mb - 0.00 in0.0 mm 0.05 in1.3 mm
03:00 AM 79.1°F26.2°C 75.2°F24.0°C 88% 4.6 mph SE7.4 kmh SE 11.5 mph18.5 kmh 29.89 in1012.2 mb - 0.00 in0.0 mm 0.05 in1.3 mm
03:10 AM 78.9°F26.1°C 75.0°F23.9°C 88% 3.5 mph SSE5.6 kmh SSE 10.4 mph16.7 kmh 29.88 in1011.9 mb - 0.00 in0.0 mm 0.05 in1.3 mm
03:20 AM 78.9°F26.1°C 74.7°F23.7°C 87% 4.6 mph SE7.4 kmh SE 9.2 mph14.8 kmh 29.88 in1011.9 mb - 0.00 in0.0 mm 0.05 in1.3 mm
03:30 AM 79.2°F26.2°C 75.0°F23.9°C 87% 8.1 mph SE13.0 kmh SE 10.4 mph16.7 kmh 29.88 in1011.9 mb - 0.00 in0.0 mm 0.05 in1.3 mm
03:40 AM 79.4°F26.3°C 74.8°F23.8°C 86% 4.6 mph SE7.4 kmh SE 6.9 mph11.1 kmh 29.88 in1011.9 mb - 0.00 in0.0 mm 0.05 in1.3 mm
03:50 AM 79.5°F26.4°C 75.0°F23.9°C 86% 4.6 mph SE7.4 kmh SE 9.2 mph14.8 kmh 29.88 in1011.9 mb - 0.00 in0.0 mm 0.05 in1.3 mm
04:00 AM 79.1°F26.2°C 74.2°F23.4°C 85% 4.6 mph SE7.4 kmh SE 6.9 mph11.1 kmh 29.87 in1011.5 mb - 0.00 in0.0 mm 0.05 in1.3 mm
04:10 AM 79.1°F26.2°C 74.5°F23.6°C 86% 5.8 mph SE9.3 kmh SE 9.2 mph14.8 kmh 29.88 in1011.9 mb - 0.00 in0.0 mm 0.05 in1.3 mm
04:20 AM 79.2°F26.2°C 74.7°F23.7°C 86% 8.1 mph SE13.0 kmh SE 11.5 mph18.5 kmh 29.88 in1011.9 mb - 0.00 in0.0 mm 0.05 in1.3 mm
04:30 AM 79.0°F26.1°C 74.8°F23.8°C 87% 5.8 mph SE9.3 kmh SE 8.1 mph13.0 kmh 29.88 in1011.9 mb - 0.00 in0.0 mm 0.05 in1.3 mm
04:40 AM 78.4°F25.8°C 74.6°F23.7°C 88% 13.8 mph SE22.2 kmh SE 15.0 mph24.1 kmh 29.88 in1011.9 mb - 0.02 in0.5 mm 0.07 in1.8 mm
04:50 AM 77.6°F25.3°C 74.1°F23.4°C 89% 6.9 mph SE11.1 kmh SE 10.4 mph16.7 kmh 29.88 in1011.9 mb - 0.17 in4.3 mm 0.24 in6.1 mm
05:00 AM 77.1°F25.1°C 73.9°F23.3°C 90% 1.2 mph SSE1.9 kmh SSE 2.3 mph3.7 kmh 29.88 in1011.9 mb - 0.17 in4.3 mm 0.39 in9.9 mm
05:10 AM 76.4°F24.7°C 73.3°F22.9°C 90% 1.2 mph S1.9 kmh S 3.5 mph5.6 kmh 29.88 in1011.9 mb - 0.01 in0.3 mm 0.40 in10.2 mm
05:20 AM 76.1°F24.5°C 72.9°F22.7°C 90% Calm Calm 1.2 mph1.9 kmh 29.87 in1011.5 mb - 0.00 in0.0 mm 0.40 in10.2 mm
05:30 AM 75.9°F24.4°C 73.1°F22.8°C 91% Calm Calm -- 29.87 in1011.5 mb - 0.00 in0.0 mm 0.40 in10.2 mm
05:40 AM 75.9°F24.4°C 73.1°F22.8°C 91% Calm Calm -- 29.87 in1011.5 mb - 0.00 in0.0 mm 0.40 in10.2 mm
05:50 AM 75.8°F24.3°C 73.0°F22.8°C 91% Calm Calm -- 29.88 in1011.9 mb - 0.00 in0.0 mm 0.40 in10.2 mm
06:00 AM 76.0°F24.4°C 73.2°F22.9°C 91% Calm Calm -- 29.87 in1011.5 mb - 0.00 in0.0 mm 0.40 in10.2 mm
06:10 AM 76.2°F24.6°C 73.4°F23.0°C 91% Calm Calm -- 29.86 in1011.2 mb - 0.00 in0.0 mm 0.40 in10.2 mm
06:20 AM 76.2°F24.6°C 73.7°F23.2°C 92% Calm Calm -- 29.86 in1011.2 mb - 0.00 in0.0 mm 0.40 in10.2 mm
06:30 AM 76.2°F24.6°C 73.7°F23.2°C 92% Calm Calm -- 29.87 in1011.5 mb - 0.00 in0.0 mm 0.40 in10.2 mm
06:40 AM 76.3°F24.6°C 73.8°F23.2°C 92% Calm Calm -- 29.88 in1011.9 mb - 0.00 in0.0 mm 0.40 in10.2 mm
06:50 AM 76.4°F24.7°C 73.9°F23.3°C 92% Calm Calm -- 29.88 in1011.9 mb - 0.00 in0.0 mm 0.40 in10.2 mm
07:00 AM 76.5°F24.7°C 74.0°F23.3°C 92% Calm Calm -- 29.88 in1011.9 mb - 0.00 in0.0 mm 0.40 in10.2 mm
07:10 AM 76.5°F24.7°C 74.0°F23.3°C 92% Calm Calm -- 29.89 in1012.2 mb - 0.00 in0.0 mm 0.40 in10.2 mm
07:20 AM 76.5°F24.7°C 74.0°F23.3°C 92% Calm Calm -- 29.89 in1012.2 mb - 0.00 in0.0 mm 0.40 in10.2 mm
07:30 AM 76.5°F24.7°C 74.0°F23.3°C 92% Calm Calm -- 29.89 in1012.2 mb - 0.00 in0.0 mm 0.40 in10.2 mm
07:40 AM 76.5°F24.7°C 74.0°F23.3°C 92% Calm Calm -- 29.90 in1012.5 mb - 0.00 in0.0 mm 0.40 in10.2 mm
07:50 AM 76.5°F24.7°C 74.0°F23.3°C 92% Calm Calm -- 29.91 in1012.9 mb - 0.00 in0.0 mm 0.40 in10.2 mm
08:00 AM 76.6°F24.8°C 74.4°F23.6°C 93% Calm Calm -- 29.91 in1012.9 mb - 0.00 in0.0 mm 0.40 in10.2 mm
08:10 AM 76.7°F24.8°C 74.2°F23.4°C 92% Calm Calm -- 29.91 in1012.9 mb - 0.00 in0.0 mm 0.40 in10.2 mm
08:20 AM 76.9°F24.9°C 74.4°F23.6°C 92% Calm Calm -- 29.92 in1013.2 mb - 0.00 in0.0 mm 0.40 in10.2 mm
08:30 AM 76.9°F24.9°C 74.4°F23.6°C 92% Calm Calm -- 29.92 in1013.2 mb - 0.00 in0.0 mm 0.40 in10.2 mm
08:40 AM 77.0°F25.0°C 74.8°F23.8°C 93% Calm Calm -- 29.93 in1013.5 mb - 0.00 in0.0 mm 0.40 in10.2 mm
08:50 AM 77.2°F25.1°C 75.0°F23.9°C 93% Calm Calm -- 29.93 in1013.5 mb - 0.00 in0.0 mm 0.40 in10.2 mm
09:00 AM 77.5°F25.3°C 75.3°F24.1°C 93% 1.2 mph SE1.9 kmh SE 3.5 mph5.6 kmh 29.93 in1013.5 mb - 0.00 in0.0 mm 0.40 in10.2 mm
09:10 AM 77.7°F25.4°C 75.5°F24.2°C 93% Calm Calm -- 29.93 in1013.5 mb - 0.00 in0.0 mm 0.40 in10.2 mm
09:20 AM 77.9°F25.5°C 75.7°F24.3°C 93% Calm Calm 1.2 mph1.9 kmh 29.93 in1013.5 mb - 0.00 in0.0 mm 0.40 in10.2 mm
09:30 AM 77.7°F25.4°C 75.5°F24.2°C 93% 1.2 mph SE1.9 kmh SE 2.3 mph3.7 kmh 29.94 in1013.9 mb - 0.00 in0.0 mm 0.40 in10.2 mm
09:40 AM 77.6°F25.3°C 75.4°F24.1°C 93% 1.2 mph ESE1.9 kmh ESE 3.5 mph5.6 kmh 29.95 in1014.2 mb - 0.00 in0.0 mm 0.40 in10.2 mm
09:50 AM 77.8°F25.4°C 75.6°F24.2°C 93% 1.2 mph SE1.9 kmh SE 2.3 mph3.7 kmh 29.95 in1014.2 mb - 0.00 in0.0 mm 0.40 in10.2 mm
10:00 AM 78.0°F25.6°C 75.8°F24.3°C 93% 2.3 mph SE3.7 kmh SE 3.5 mph5.6 kmh 29.95 in1014.2 mb - 0.00 in0.0 mm 0.40 in10.2 mm
10:10 AM 77.8°F25.4°C 75.3°F24.1°C 92% Calm Calm -- 29.95 in1014.2 mb - 0.00 in0.0 mm 0.40 in10.2 mm
10:20 AM 77.8°F25.4°C 75.3°F24.1°C 92% Calm Calm -- 29.95 in1014.2 mb - 0.00 in0.0 mm 0.40 in10.2 mm
10:30 AM 77.9°F25.5°C 75.3°F24.1°C 92% Calm Calm 2.3 mph3.7 kmh 29.95 in1014.2 mb - 0.00 in0.0 mm 0.40 in10.2 mm
10:40 AM 78.3°F25.7°C 75.8°F24.3°C 92% Calm Calm -- 29.95 in1014.2 mb - 0.00 in0.0 mm 0.40 in10.2 mm
10:50 AM 78.6°F25.9°C 76.1°F24.5°C 92% Calm Calm 1.2 mph1.9 kmh 29.95 in1014.2 mb - 0.00 in0.0 mm 0.40 in10.2 mm
11:00 AM 79.4°F26.3°C 76.9°F24.9°C 92% 2.3 mph SE3.7 kmh SE 3.5 mph5.6 kmh 29.95 in1014.2 mb - 0.00 in0.0 mm 0.40 in10.2 mm
11:10 AM 80.2°F26.8°C 77.4°F25.2°C 91% Calm Calm 1.2 mph1.9 kmh 29.95 in1014.2 mb - 0.00 in0.0 mm 0.40 in10.2 mm
11:20 AM 81.3°F27.4°C 78.1°F25.6°C 90% 1.2 mph SE1.9 kmh SE 3.5 mph5.6 kmh 29.95 in1014.2 mb - 0.00 in0.0 mm 0.40 in10.2 mm
11:30 AM 82.1°F27.8°C 78.2°F25.7°C 88% 2.3 mph SE3.7 kmh SE 4.6 mph7.4 kmh 29.95 in1014.2 mb - 0.00 in0.0 mm 0.40 in10.2 mm
11:40 AM 83.0°F28.3°C 77.7°F25.4°C 84% 3.5 mph SE5.6 kmh SE 6.9 mph11.1 kmh 29.94 in1013.9 mb - 0.00 in0.0 mm 0.40 in10.2 mm
11:50 AM 83.8°F28.8°C 78.1°F25.6°C 83% 5.8 mph SSE9.3 kmh SSE 11.5 mph18.5 kmh 29.94 in1013.9 mb - 0.00 in0.0 mm 0.40 in10.2 mm
12:00 PM 83.9°F28.8°C 77.8°F25.4°C 82% 5.8 mph SE9.3 kmh SE 10.4 mph16.7 kmh 29.94 in1013.9 mb - 0.00 in0.0 mm 0.40 in10.2 mm
12:10 PM 84.5°F29.2°C 78.4°F25.8°C 82% 6.9 mph ESE11.1 kmh ESE 13.8 mph22.2 kmh 29.93 in1013.5 mb - 0.00 in0.0 mm 0.40 in10.2 mm
12:20 PM 83.5°F28.6°C 77.4°F25.2°C 82% 5.8 mph SE9.3 kmh SE 11.5 mph18.5 kmh 29.94 in1013.9 mb - 0.00 in0.0 mm 0.40 in10.2 mm
12:30 PM 83.9°F28.8°C 77.8°F25.4°C 82% 8.1 mph SE13.0 kmh SE 16.1 mph25.9 kmh 29.93 in1013.5 mb - 0.00 in0.0 mm 0.40 in10.2 mm
12:40 PM 84.7°F29.3°C 77.8°F25.4°C 80% 12.7 mph SE20.4 kmh SE 16.1 mph25.9 kmh 29.94 in1013.9 mb - 0.00 in0.0 mm 0.40 in10.2 mm
12:50 PM 83.7°F28.7°C 76.9°F24.9°C 80% 6.9 mph SE11.1 kmh SE 9.2 mph14.8 kmh 29.94 in1013.9 mb - 0.00 in0.0 mm 0.40 in10.2 mm
01:00 PM 83.4°F28.6°C 76.5°F24.7°C 80% 6.9 mph SE11.1 kmh SE 12.7 mph20.4 kmh 29.93 in1013.5 mb - 0.00 in0.0 mm 0.40 in10.2 mm
01:10 PM 83.6°F28.7°C 77.5°F25.3°C 82% 8.1 mph SE13.0 kmh SE 11.5 mph18.5 kmh 29.94 in1013.9 mb - 0.00 in0.0 mm 0.40 in10.2 mm
01:20 PM 82.4°F28.0°C 77.1°F25.1°C 84% 4.6 mph SE7.4 kmh SE 11.5 mph18.5 kmh 29.95 in1014.2 mb - 0.00 in0.0 mm 0.40 in10.2 mm
01:30 PM 80.3°F26.8°C 75.1°F23.9°C 84% Calm Calm 3.5 mph5.6 kmh 29.96 in1014.6 mb - 0.00 in0.0 mm 0.40 in10.2 mm
01:40 PM 77.3°F25.2°C 72.8°F22.7°C 86% Calm Calm 3.5 mph5.6 kmh 29.96 in1014.6 mb - 0.05 in1.3 mm 0.45 in11.4 mm
01:50 PM 75.9°F24.4°C 72.1°F22.3°C 88% 1.2 mph SW1.9 kmh SW 3.5 mph5.6 kmh 29.96 in1014.6 mb - 0.01 in0.3 mm 0.46 in11.7 mm
02:00 PM 75.4°F24.1°C 71.9°F22.2°C 89% Calm Calm 2.3 mph3.7 kmh 29.97 in1014.9 mb - 0.00 in0.0 mm 0.46 in11.7 mm
02:10 PM 75.4°F24.1°C 72.2°F22.3°C 90% Calm Calm 1.2 mph1.9 kmh 29.97 in1014.9 mb - 0.01 in0.3 mm 0.47 in11.9 mm
02:20 PM 75.2°F24.0°C 72.4°F22.4°C 91% Calm Calm -- 29.97 in1014.9 mb - 0.22 in5.6 mm 0.69 in17.5 mm
02:30 PM 75.0°F23.9°C 72.2°F22.3°C 91% Calm Calm 1.2 mph1.9 kmh 29.97 in1014.9 mb - 0.17 in4.3 mm 0.84 in21.3 mm
02:40 PM 74.8°F23.8°C 72.0°F22.2°C 91% Calm Calm -- 29.96 in1014.6 mb - 0.07 in1.8 mm 0.89 in22.6 mm
02:50 PM 74.8°F23.8°C 72.0°F22.2°C 91% Calm Calm -- 29.96 in1014.6 mb - 0.06 in1.5 mm 0.95 in24.1 mm
03:00 PM 74.8°F23.8°C 72.3°F22.4°C 92% Calm Calm -- 29.96 in1014.6 mb - 0.10 in2.5 mm 1.04 in26.4 mm
03:10 PM 74.8°F23.8°C 72.3°F22.4°C 92% Calm Calm -- 29.96 in1014.6 mb - 0.08 in2.0 mm 1.10 in27.9 mm
03:20 PM 74.8°F23.8°C 72.3°F22.4°C 92% Calm Calm -- 29.95 in1014.2 mb - 0.05 in1.3 mm 1.14 in29.0 mm
03:30 PM 75.0°F23.9°C 72.5°F22.5°C 92% Calm Calm -- 29.95 in1014.2 mb - 0.03 in0.8 mm 1.17 in29.7 mm
03:40 PM 75.1°F23.9°C 72.6°F22.6°C 92% Calm Calm -- 29.94 in1013.9 mb - 0.05 in1.3 mm 1.22 in31.0 mm
03:50 PM 74.9°F23.8°C 72.4°F22.4°C 92% Calm Calm -- 29.94 in1013.9 mb - 0.06 in1.5 mm 1.27 in32.3 mm
04:00 PM 74.7°F23.7°C 72.2°F22.3°C 92% Calm Calm 1.2 mph1.9 kmh 29.93 in1013.5 mb - 0.03 in0.8 mm 1.30 in33.0 mm
04:10 PM 74.7°F23.7°C 72.2°F22.3°C 92% Calm Calm 1.2 mph1.9 kmh 29.93 in1013.5 mb - 0.03 in0.8 mm 1.33 in33.8 mm
04:20 PM 74.8°F23.8°C 72.6°F22.6°C 93% Calm Calm -- 29.93 in1013.5 mb - 0.04 in1.0 mm 1.37 in34.8 mm
04:30 PM 74.7°F23.7°C 72.2°F22.3°C 92% Calm Calm 2.3 mph3.7 kmh 29.92 in1013.2 mb - 0.04 in1.0 mm 1.40 in35.6 mm
04:40 PM 74.8°F23.8°C 72.6°F22.6°C 93% Calm Calm -- 29.92 in1013.2 mb - 0.02 in0.5 mm 1.42 in36.1 mm
04:50 PM 75.0°F23.9°C 72.8°F22.7°C 93% Calm Calm -- 29.92 in1013.2 mb - 0.01 in0.3 mm 1.43 in36.3 mm
05:00 PM 75.1°F23.9°C 72.9°F22.7°C 93% Calm Calm -- 29.91 in1012.9 mb - 0.01 in0.3 mm 1.44 in36.6 mm
05:10 PM 75.1°F23.9°C 72.9°F22.7°C 93% Calm Calm -- 29.91 in1012.9 mb - 0.01 in0.3 mm 1.45 in36.8 mm
05:20 PM 75.2°F24.0°C 73.0°F22.8°C 93% Calm Calm -- 29.92 in1013.2 mb - 0.01 in0.3 mm 1.46 in37.1 mm
05:30 PM 75.2°F24.0°C 73.0°F22.8°C 93% 1.2 mph SSE1.9 kmh SSE 3.5 mph5.6 kmh 29.92 in1013.2 mb - 0.02 in0.5 mm 1.48 in37.6 mm
05:40 PM 74.8°F23.8°C 72.6°F22.6°C 93% 3.5 mph SSE5.6 kmh SSE 6.9 mph11.1 kmh 29.92 in1013.2 mb - 0.01 in0.3 mm 1.49 in37.8 mm
05:50 PM 74.7°F23.7°C 72.5°F22.5°C 93% 3.5 mph SE5.6 kmh SE 4.6 mph7.4 kmh 29.92 in1013.2 mb - 0.02 in0.5 mm 1.51 in38.4 mm
06:00 PM 74.6°F23.7°C 72.4°F22.4°C 93% 2.3 mph SE3.7 kmh SE 6.9 mph11.1 kmh 29.92 in1013.2 mb - 0.02 in0.5 mm 1.53 in38.9 mm
06:10 PM 74.5°F23.6°C 72.3°F22.4°C 93% 2.3 mph SE3.7 kmh SE 3.5 mph5.6 kmh 29.93 in1013.5 mb - 0.02 in0.5 mm 1.55 in39.4 mm
06:20 PM 74.2°F23.4°C 72.1°F22.3°C 93% 2.3 mph SE3.7 kmh SE 3.5 mph5.6 kmh 29.93 in1013.5 mb - 0.03 in0.8 mm 1.58 in40.1 mm
06:30 PM 73.9°F23.3°C 71.7°F22.1°C 93% 3.5 mph SE5.6 kmh SE 10.4 mph16.7 kmh 29.93 in1013.5 mb - 0.03 in0.8 mm 1.61 in40.9 mm
06:40 PM 73.7°F23.2°C 71.5°F21.9°C 93% 2.3 mph SE3.7 kmh SE 4.6 mph7.4 kmh 29.92 in1013.2 mb - 0.04 in1.0 mm 1.64 in41.7 mm
06:50 PM 73.9°F23.3°C 71.7°F22.1°C 93% 3.5 mph SE5.6 kmh SE 8.1 mph13.0 kmh 29.92 in1013.2 mb - 0.03 in0.8 mm 1.67 in42.4 mm
07:00 PM 73.9°F23.3°C 71.7°F22.1°C 93% 4.6 mph SE7.4 kmh SE 5.8 mph9.3 kmh 29.92 in1013.2 mb - 0.01 in0.3 mm 1.68 in42.7 mm
07:10 PM 74.1°F23.4°C 72.0°F22.2°C 93% 4.6 mph SE7.4 kmh SE 6.9 mph11.1 kmh 29.93 in1013.5 mb - 0.02 in0.5 mm 1.70 in43.2 mm
07:20 PM 74.4°F23.6°C 72.2°F22.3°C 93% 4.6 mph SE7.4 kmh SE 5.8 mph9.3 kmh 29.93 in1013.5 mb - 0.01 in0.3 mm 1.71 in43.4 mm
07:30 PM 74.7°F23.7°C 72.5°F22.5°C 93% 4.6 mph SE7.4 kmh SE 9.2 mph14.8 kmh 29.92 in1013.2 mb - 0.01 in0.3 mm 1.72 in43.7 mm
07:40 PM 74.8°F23.8°C 72.6°F22.6°C 93% 3.5 mph SE5.6 kmh SE 5.8 mph9.3 kmh 29.93 in1013.5 mb - 0.01 in0.3 mm 1.73 in43.9 mm
07:50 PM 74.8°F23.8°C 72.6°F22.6°C 93% 4.6 mph SE7.4 kmh SE 8.1 mph13.0 kmh 29.93 in1013.5 mb - 0.01 in0.3 mm 1.74 in44.2 mm
08:00 PM 74.8°F23.8°C 72.7°F22.6°C 93% 4.6 mph SE7.4 kmh SE 8.1 mph13.0 kmh 29.93 in1013.5 mb - 0.00 in0.0 mm 1.74 in44.2 mm
08:10 PM 74.9°F23.8°C 72.7°F22.6°C 93% 4.6 mph SE7.4 kmh SE 5.8 mph9.3 kmh 29.93 in1013.5 mb - 0.01 in0.3 mm 1.75 in44.5 mm
08:20 PM 75.1°F23.9°C 72.9°F22.7°C 93% 3.5 mph SE5.6 kmh SE 4.6 mph7.4 kmh 29.93 in1013.5 mb - 0.00 in0.0 mm 1.75 in44.5 mm
08:30 PM 75.2°F24.0°C 73.0°F22.8°C 93% 4.6 mph SE7.4 kmh SE 6.9 mph11.1 kmh 29.93 in1013.5 mb - 0.01 in0.3 mm 1.76 in44.7 mm
08:40 PM 75.4°F24.1°C 73.3°F22.9°C 93% 3.5 mph SE5.6 kmh SE 3.5 mph5.6 kmh 29.93 in1013.5 mb - 0.01 in0.3 mm 1.77 in45.0 mm
08:50 PM 75.7°F24.3°C 73.8°F23.2°C 94% 2.3 mph SE3.7 kmh SE 3.5 mph5.6 kmh 29.93 in1013.5 mb - 0.01 in0.3 mm 1.78 in45.2 mm
09:00 PM 75.9°F24.4°C 73.7°F23.2°C 93% 3.5 mph SE5.6 kmh SE 10.4 mph16.7 kmh 29.93 in1013.5 mb - 0.01 in0.3 mm 1.79 in45.5 mm
09:10 PM 76.0°F24.4°C 73.8°F23.2°C 93% 4.6 mph SSE7.4 kmh SSE 6.9 mph11.1 kmh 29.93 in1013.5 mb - 0.01 in0.3 mm 1.79 in45.5 mm
09:20 PM 75.9°F24.4°C 73.7°F23.2°C 93% 5.8 mph SE9.3 kmh SE 9.2 mph14.8 kmh 29.94 in1013.9 mb - 0.00 in0.0 mm 1.79 in45.5 mm
09:30 PM 75.9°F24.4°C 73.7°F23.2°C 93% 4.6 mph SE7.4 kmh SE 5.8 mph9.3 kmh 29.94 in1013.9 mb - 0.01 in0.3 mm 1.80 in45.7 mm
09:40 PM 75.8°F24.3°C 73.6°F23.1°C 93% 5.8 mph SE9.3 kmh SE 11.5 mph18.5 kmh 29.95 in1014.2 mb - 0.00 in0.0 mm 1.80 in45.7 mm
09:50 PM 75.7°F24.3°C 73.5°F23.1°C 93% 6.9 mph SE11.1 kmh SE 10.4 mph16.7 kmh 29.96 in1014.6 mb - 0.00 in0.0 mm 1.80 in45.7 mm
10:00 PM 75.7°F24.3°C 73.6°F23.1°C 93% 6.9 mph SE11.1 kmh SE 11.5 mph18.5 kmh 29.96 in1014.6 mb - 0.00 in0.0 mm 1.80 in45.7 mm
10:10 PM 75.8°F24.3°C 73.6°F23.1°C 93% 3.5 mph SE5.6 kmh SE 9.2 mph14.8 kmh 29.97 in1014.9 mb - 0.00 in0.0 mm 1.80 in45.7 mm
10:20 PM 76.0°F24.4°C 73.8°F23.2°C 93% 4.6 mph SE7.4 kmh SE 8.1 mph13.0 kmh 29.97 in1014.9 mb - 0.00 in0.0 mm 1.80 in45.7 mm
10:30 PM 76.1°F24.5°C 74.0°F23.3°C 93% 4.6 mph SE7.4 kmh SE 4.6 mph7.4 kmh 29.96 in1014.6 mb - 0.01 in0.3 mm 1.81 in46.0 mm
10:40 PM 76.3°F24.6°C 74.1°F23.4°C 93% 5.8 mph SE9.3 kmh SE 9.2 mph14.8 kmh 29.97 in1014.9 mb - 0.00 in0.0 mm 1.81 in46.0 mm
10:50 PM 76.3°F24.6°C 74.1°F23.4°C 93% 5.8 mph SE9.3 kmh SE 9.2 mph14.8 kmh 29.97 in1014.9 mb - 0.00 in0.0 mm 1.81 in46.0 mm
11:00 PM 76.4°F24.7°C 74.2°F23.4°C 93% 3.5 mph SE5.6 kmh SE 5.8 mph9.3 kmh 29.97 in1014.9 mb - 0.00 in0.0 mm 1.81 in46.0 mm
11:10 PM 76.5°F24.7°C 74.3°F23.5°C 93% 4.6 mph SE7.4 kmh SE 8.1 mph13.0 kmh 29.97 in1014.9 mb - 0.00 in0.0 mm 1.81 in46.0 mm
11:20 PM 76.6°F24.8°C 74.4°F23.6°C 93% 4.6 mph SE7.4 kmh SE 6.9 mph11.1 kmh 29.97 in1014.9 mb - 0.00 in0.0 mm 1.81 in46.0 mm
11:30 PM 76.7°F24.8°C 74.5°F23.6°C 93% 5.8 mph SE9.3 kmh SE 6.9 mph11.1 kmh 29.97 in1014.9 mb - 0.00 in0.0 mm 1.81 in46.0 mm
11:40 PM 76.6°F24.8°C 74.4°F23.6°C 93% 4.6 mph SE7.4 kmh SE 9.2 mph14.8 kmh 29.97 in1014.9 mb - 0.00 in0.0 mm 1.81 in46.0 mm
11:50 PM 76.6°F24.8°C 74.4°F23.6°C 93% 5.8 mph SE9.3 kmh SE 9.2 mph14.8 kmh 29.97 in1014.9 mb - 0.00 in0.0 mm 1.81 in46.0 mm